Time;durP1;ratioP1;P1;durP2;ratioP2;P2;SDS_P1;SDS_P2;PMS_P1;PMS_P2;Temp;Humidity;BMP_temperature;BMP_pressure;BME280_temperature;BME280_humidity;BME280_pressure;Samples;Min_cycle;Max_cycle;Signal;HPM_P1;HPM_P2
2023/03/19 00:00:40;;;;;;;7.28;5.15;;;7.80;85.20;;;;;;5030186;28;20328;-85
2023/03/19 00:03:08;;;;;;;5.72;5.22;;;7.80;86.10;;;;;;5030390;28;20260;-85
2023/03/19 00:05:38;;;;;;;6.70;5.55;;;7.80;87.10;;;;;;5030628;28;20221;-85
2023/03/19 00:08:06;;;;;;;5.45;4.93;;;7.70;86.40;;;;;;5030137;28;20307;-85
2023/03/19 00:10:38;;;;;;;5.65;4.78;;;7.70;87.10;;;;;;5030883;28;20328;-85
2023/03/19 00:13:07;;;;;;;7.45;6.15;;;7.70;87.50;;;;;;5030528;28;20251;-84
2023/03/19 00:15:35;;;;;;;5.68;4.85;;;7.70;88.30;;;;;;5030925;28;20309;-84
2023/03/19 00:18:05;;;;;;;8.07;6.10;;;7.60;88.10;;;;;;5030462;28;20221;-85
2023/03/19 00:20:33;;;;;;;6.75;5.93;;;7.60;88.70;;;;;;5030493;28;20244;-85
2023/03/19 00:23:03;;;;;;;7.40;6.55;;;7.50;88.90;;;;;;5030309;28;20315;-85
2023/03/19 00:25:32;;;;;;;6.90;6.07;;;7.50;89.90;;;;;;5030474;28;20231;-85
2023/03/19 00:28:01;;;;;;;8.90;5.85;;;7.50;90.10;;;;;;5029565;28;20233;-85
2023/03/19 00:30:29;;;;;;;5.88;5.32;;;7.50;90.10;;;;;;5029820;28;20328;-85
2023/03/19 00:32:57;;;;;;;6.82;5.55;;;7.50;90.20;;;;;;5029887;28;20255;-85
2023/03/19 00:35:25;;;;;;;9.38;6.38;;;7.50;90.40;;;;;;5030478;28;20239;-85
2023/03/19 00:37:54;;;;;;;5.80;5.28;;;7.50;90.60;;;;;;5029915;28;20232;-85
2023/03/19 00:40:24;;;;;;;7.07;6.18;;;7.40;90.60;;;;;;5028803;28;20273;-84
2023/03/19 00:42:52;;;;;;;5.97;5.05;;;7.50;91.20;;;;;;5030093;28;20221;-84
2023/03/19 00:45:20;;;;;;;5.97;5.43;;;7.40;90.90;;;;;;5029958;28;20233;-85
2023/03/19 00:47:49;;;;;;;4.93;4.50;;;7.40;91.30;;;;;;5029417;28;20229;-79
2023/03/19 00:50:17;;;;;;;6.20;5.57;;;7.40;91.80;;;;;;5029938;28;20307;-79
2023/03/19 00:52:46;;;;;;;11.70;5.50;;;7.40;91.40;;;;;;5029791;28;20237;-79
2023/03/19 00:55:14;;;;;;;7.15;5.55;;;7.40;91.60;;;;;;5030261;28;20222;-79
2023/03/19 00:57:44;;;;;;;6.22;4.78;;;7.30;92.00;;;;;;5029557;28;20261;-79
2023/03/19 01:00:14;;;;;;;7.50;5.22;;;7.30;92.00;;;;;;5030380;28;20280;-79
2023/03/19 01:02:41;;;;;;;11.00;6.07;;;7.30;92.20;;;;;;5030268;28;20232;-79
2023/03/19 01:05:09;;;;;;;5.72;4.90;;;7.30;92.20;;;;;;5029599;28;20232;-79
2023/03/19 01:07:37;;;;;;;6.18;5.57;;;7.20;92.20;;;;;;5032537;28;20225;-79
2023/03/19 01:10:06;;;;;;;5.03;4.57;;;7.20;92.60;;;;;;5033195;28;20243;-79
2023/03/19 01:12:35;;;;;;;7.25;5.15;;;7.20;93.00;;;;;;5033183;28;20237;-79
2023/03/19 01:15:07;;;;;;;5.53;5.00;;;7.20;92.80;;;;;;5033396;28;20229;-79
2023/03/19 01:17:36;;;;;;;6.57;5.93;;;7.10;93.30;;;;;;5034284;28;20299;-78
2023/03/19 01:20:07;;;;;;;6.63;4.35;;;7.10;93.40;;;;;;5035144;28;20329;-79
2023/03/19 01:22:36;;;;;;;8.63;5.70;;;7.10;93.30;;;;;;5035173;28;20275;-79
2023/03/19 01:25:06;;;;;;;5.25;4.78;;;7.10;93.40;;;;;;5034945;28;20304;-79
2023/03/19 01:27:34;;;;;;;7.07;5.57;;;7.10;93.70;;;;;;5034480;28;20249;-79
2023/03/19 01:30:06;;;;;;;7.25;5.28;;;7.00;93.70;;;;;;5035314;28;20364;-79
2023/03/19 01:32:34;;;;;;;6.40;5.07;;;7.10;94.00;;;;;;5035181;28;20259;-79
2023/03/19 01:35:03;;;;;;;10.57;5.28;;;7.00;94.30;;;;;;5034873;28;20244;-79
2023/03/19 01:37:32;;;;;;;6.25;5.22;;;7.00;94.10;;;;;;5034621;28;20277;-79
2023/03/19 01:40:00;;;;;;;9.10;6.07;;;7.00;94.20;;;;;;5034935;28;20330;-79
2023/03/19 01:42:29;;;;;;;6.90;5.72;;;7.00;94.40;;;;;;5035139;28;20227;-79
2023/03/19 01:44:57;;;;;;;6.07;5.45;;;6.90;94.60;;;;;;5034896;28;20344;-79
2023/03/19 01:47:32;;;;;;;6.25;5.70;;;6.90;94.80;;;;;;5034448;28;20240;-79
2023/03/19 01:50:01;;;;;;;6.28;5.20;;;6.90;94.90;;;;;;5034427;28;20241;-80
2023/03/19 01:52:33;;;;;;;5.22;4.82;;;6.90;95.30;;;;;;5034837;28;20272;-79
2023/03/19 01:55:06;;;;;;;8.38;5.63;;;6.80;95.50;;;;;;5034660;28;20309;-79
2023/03/19 01:57:35;;;;;;;6.55;5.95;;;6.80;95.70;;;;;;5034217;28;20279;-79
2023/03/19 02:00:06;;;;;;;9.60;5.57;;;6.80;95.90;;;;;;5034646;28;20267;-78
2023/03/19 02:02:38;;;;;;;8.75;5.85;;;6.80;95.90;;;;;;5034391;28;20240;-79
2023/03/19 02:05:09;;;;;;;5.75;5.25;;;6.80;96.40;;;;;;5034528;28;20273;-79
2023/03/19 02:07:40;;;;;;;6.15;5.53;;;6.70;96.70;;;;;;5033956;28;20307;-80
2023/03/19 02:10:12;;;;;;;5.82;5.20;;;6.70;96.60;;;;;;5034057;28;20251;-80
2023/03/19 02:12:40;;;;;;;5.97;5.38;;;6.70;96.90;;;;;;5034402;28;20288;-79
2023/03/19 02:15:09;;;;;;;6.43;5.40;;;6.70;97.20;;;;;;5034312;28;20247;-79
2023/03/19 02:17:40;;;;;;;6.55;5.53;;;6.70;97.30;;;;;;5032938;28;20248;-78
2023/03/19 02:20:15;;;;;;;6.78;4.95;;;6.60;97.10;;;;;;5034316;28;20337;-79
2023/03/19 02:22:52;;;;;;;5.25;4.75;;;6.60;97.40;;;;;;5034276;28;20231;-79
2023/03/19 02:25:28;;;;;;;5.72;5.13;;;6.60;97.70;;;;;;5033965;28;20311;-79
2023/03/19 02:27:58;;;;;;;5.93;4.88;;;6.60;97.90;;;;;;5034171;28;20209;-79
2023/03/19 02:30:29;;;;;;;7.95;5.60;;;6.60;98.00;;;;;;5034264;28;20245;-79
2023/03/19 02:32:57;;;;;;;7.07;5.07;;;6.60;98.10;;;;;;5034273;28;20217;-79
2023/03/19 02:35:28;;;;;;;6.97;4.93;;;6.50;98.50;;;;;;5034050;28;20328;-79
2023/03/19 02:37:56;;;;;;;8.57;4.97;;;6.50;98.70;;;;;;5033193;28;20221;-79
2023/03/19 02:40:28;;;;;;;5.32;4.82;;;6.50;99.20;;;;;;5032860;28;20251;-79
2023/03/19 02:42:57;;;;;;;4.85;4.45;;;6.50;98.90;;;;;;5033941;28;20221;-79
2023/03/19 02:45:29;;;;;;;11.55;5.35;;;6.50;99.10;;;;;;5033979;28;20304;-79
2023/03/19 02:47:58;;;;;;;10.88;5.72;;;6.50;99.40;;;;;;5033574;28;20248;-79
2023/03/19 02:50:26;;;;;;;5.72;5.07;;;6.50;99.40;;;;;;5033544;28;20253;-80
2023/03/19 02:52:55;;;;;;;6.95;6.13;;;6.50;99.80;;;;;;5033694;28;20225;-79
2023/03/19 02:55:23;;;;;;;6.75;5.35;;;6.50;99.90;;;;;;5033268;28;20328;-79
2023/03/19 02:57:51;;;;;;;8.50;5.70;;;6.50;99.90;;;;;;5033706;28;20277;-79
2023/03/19 03:00:21;;;;;;;6.40;5.07;;;6.50;99.90;;;;;;5033574;28;20241;-78
2023/03/19 03:02:50;;;;;;;12.07;5.50;;;6.50;99.90;;;;;;5033712;28;20223;-79
2023/03/19 03:05:18;;;;;;;7.68;5.85;;;6.50;99.90;;;;;;5033429;28;20304;-79
2023/03/19 03:07:46;;;;;;;7.38;5.75;;;6.50;99.90;;;;;;5033004;28;20225;-79
2023/03/19 03:10:15;;;;;;;10.20;5.82;;;6.40;99.90;;;;;;5032907;28;20295;-79
2023/03/19 03:12:43;;;;;;;5.10;4.70;;;6.40;99.90;;;;;;5033500;28;20244;-79
2023/03/19 03:15:12;;;;;;;5.13;4.72;;;6.40;99.90;;;;;;5032946;28;20336;-79
2023/03/19 03:17:43;;;;;;;6.93;5.07;;;6.50;99.90;;;;;;5032353;28;20225;-79
2023/03/19 03:20:13;;;;;;;5.30;4.80;;;6.40;99.90;;;;;;5033257;28;20323;-80
2023/03/19 03:22:42;;;;;;;5.32;4.88;;;6.40;99.90;;;;;;5033212;28;20225;-79
2023/03/19 03:25:11;;;;;;;5.43;4.75;;;6.40;99.90;;;;;;5033391;28;20213;-79
2023/03/19 03:27:40;;;;;;;5.63;5.13;;;6.40;99.90;;;;;;5032638;28;20308;-79
2023/03/19 03:30:10;;;;;;;7.65;5.75;;;6.40;99.90;;;;;;5032984;28;20279;-79
2023/03/19 03:32:39;;;;;;;5.03;4.63;;;6.40;99.90;;;;;;5033132;28;20445;-80
2023/03/19 03:35:10;;;;;;;6.85;5.43;;;6.40;99.90;;;;;;5033285;28;20236;-80
2023/03/19 03:37:38;;;;;;;5.38;4.90;;;6.30;99.90;;;;;;5032713;28;20221;-80
2023/03/19 03:40:08;;;;;;;6.30;5.00;;;6.30;99.90;;;;;;5031674;28;20237;-79
2023/03/19 03:42:37;;;;;;;6.45;5.85;;;6.30;99.90;;;;;;5032696;28;20279;-79
2023/03/19 03:45:06;;;;;;;6.50;5.65;;;6.20;99.90;;;;;;5032568;28;20303;-79
2023/03/19 03:47:35;;;;;;;5.55;5.05;;;6.20;99.90;;;;;;5032163;28;20218;-85
2023/03/19 03:50:04;;;;;;;7.75;6.60;;;6.20;99.90;;;;;;5032776;28;20237;-85
2023/03/19 03:52:33;;;;;;;7.18;5.78;;;6.20;99.90;;;;;;5032624;28;20281;-85
2023/03/19 03:55:02;;;;;;;6.63;5.63;;;6.20;99.90;;;;;;5032511;28;20245;-85
2023/03/19 03:57:30;;;;;;;5.65;5.15;;;6.20;99.90;;;;;;5032160;28;20284;-84
2023/03/19 03:59:59;;;;;;;8.70;5.57;;;6.10;99.90;;;;;;5032343;28;20249;-84
2023/03/19 04:02:27;;;;;;;6.03;5.38;;;6.10;99.90;;;;;;5032947;28;20276;-85
2023/03/19 04:04:56;;;;;;;10.90;5.82;;;6.10;99.90;;;;;;5033073;28;20225;-85
2023/03/19 04:07:25;;;;;;;7.53;5.45;;;6.10;99.90;;;;;;5031983;28;20308;-85
2023/03/19 04:09:57;;;;;;;10.02;6.28;;;6.10;99.90;;;;;;5032194;28;20244;-84
2023/03/19 04:12:25;;;;;;;6.15;5.00;;;6.10;99.90;;;;;;5031920;28;20221;-84
2023/03/19 04:14:54;;;;;;;6.45;5.72;;;6.00;99.90;;;;;;5032364;28;20304;-84
2023/03/19 04:17:22;;;;;;;7.80;5.43;;;6.00;99.90;;;;;;5032168;28;20249;-85
2023/03/19 04:19:50;;;;;;;6.72;5.38;;;6.00;99.90;;;;;;5032374;28;20320;-84
2023/03/19 04:22:19;;;;;;;6.63;5.78;;;6.00;99.90;;;;;;5032763;28;20221;-84
2023/03/19 04:24:47;;;;;;;7.00;5.93;;;5.90;99.90;;;;;;5032503;28;20213;-84
2023/03/19 04:27:17;;;;;;;5.75;5.15;;;5.90;99.90;;;;;;5032030;28;20224;-85
2023/03/19 04:29:45;;;;;;;5.28;4.82;;;5.90;99.90;;;;;;5032535;28;20261;-85
2023/03/19 04:32:14;;;;;;;9.75;6.88;;;5.90;99.90;;;;;;5032405;28;20244;-85
2023/03/19 04:34:42;;;;;;;6.88;5.18;;;5.90;99.90;;;;;;5032040;28;20307;-85
2023/03/19 04:37:11;;;;;;;7.03;6.13;;;5.80;99.90;;;;;;5031770;28;20281;-85
2023/03/19 04:39:39;;;;;;;8.55;6.20;;;5.80;99.90;;;;;;5031865;28;20350;-85
2023/03/19 04:42:07;;;;;;;6.60;5.38;;;5.80;99.90;;;;;;5034888;28;20253;-85
2023/03/19 04:44:37;;;;;;;5.80;5.28;;;5.80;99.90;;;;;;5036203;28;20313;-85
2023/03/19 04:47:06;;;;;;;6.07;5.47;;;5.80;99.90;;;;;;5035492;28;20256;-85
2023/03/19 04:49:35;;;;;;;6.70;5.10;;;5.80;99.90;;;;;;5035636;28;20217;-85
2023/03/19 04:52:03;;;;;;;9.23;6.50;;;5.80;99.90;;;;;;5035756;28;20255;-85
2023/03/19 04:54:32;;;;;;;6.40;5.80;;;5.70;99.90;;;;;;5035965;28;20306;-85
2023/03/19 04:57:01;;;;;;;6.88;6.05;;;5.70;99.90;;;;;;5035276;28;20272;-85
2023/03/19 04:59:30;;;;;;;7.30;6.32;;;5.70;99.90;;;;;;5035759;28;20236;-85
2023/03/19 05:01:59;;;;;;;8.73;6.40;;;5.70;99.90;;;;;;5035905;28;20256;-85
2023/03/19 05:04:28;;;;;;;7.53;5.97;;;5.70;99.90;;;;;;5035493;28;20221;-85
2023/03/19 05:06:57;;;;;;;9.02;6.20;;;5.60;99.90;;;;;;5035258;28;20252;-85
2023/03/19 05:09:25;;;;;;;5.72;5.20;;;5.60;99.90;;;;;;5036086;28;20217;-85
2023/03/19 05:11:53;;;;;;;6.57;5.78;;;5.60;99.90;;;;;;5035752;28;20255;-85
2023/03/19 05:14:21;;;;;;;6.03;5.38;;;5.60;99.90;;;;;;5035333;28;20289;-85
2023/03/19 05:16:50;;;;;;;6.05;5.50;;;5.60;99.90;;;;;;5035093;28;20328;-85
2023/03/19 05:19:24;;;;;;;6.13;5.55;;;5.60;99.90;;;;;;5035549;28;20221;-85
2023/03/19 05:21:52;;;;;;;9.23;7.13;;;5.60;99.90;;;;;;5035708;28;20228;-85
2023/03/19 05:24:20;;;;;;;9.27;7.10;;;5.60;99.90;;;;;;5035490;28;20259;-85
2023/03/19 05:26:48;;;;;;;5.88;5.28;;;5.50;99.90;;;;;;5034783;28;20304;-85
2023/03/19 05:29:17;;;;;;;6.38;5.78;;;5.50;99.90;;;;;;5035381;28;20285;-85
2023/03/19 05:31:46;;;;;;;6.43;5.80;;;5.50;99.90;;;;;;5035509;28;20247;-84
2023/03/19 05:34:15;;;;;;;6.53;5.93;;;5.50;99.90;;;;;;5035391;28;20229;-85
2023/03/19 05:36:45;;;;;;;6.80;5.68;;;5.50;99.90;;;;;;5034469;28;20264;-85
2023/03/19 05:39:13;;;;;;;9.88;7.05;;;5.60;99.90;;;;;;5034252;28;20280;-85
2023/03/19 05:41:42;;;;;;;10.15;5.97;;;5.60;99.90;;;;;;5034432;28;20237;-84
2023/03/19 05:44:10;;;;;;;8.10;6.28;;;5.50;99.90;;;;;;5034820;28;20278;-85
2023/03/19 05:46:39;;;;;;;6.93;6.32;;;5.50;99.90;;;;;;5034661;28;20217;-85
2023/03/19 05:49:08;;;;;;;6.30;5.72;;;5.50;99.90;;;;;;5034767;28;20221;-85
2023/03/19 05:51:36;;;;;;;6.93;6.22;;;5.50;99.90;;;;;;5034686;28;20294;-84
2023/03/19 05:54:06;;;;;;;8.55;6.13;;;5.50;99.90;;;;;;5034746;28;20231;-84
2023/03/19 05:56:35;;;;;;;8.20;6.93;;;5.50;99.90;;;;;;5034338;28;20269;-85
2023/03/19 05:59:03;;;;;;;7.07;6.38;;;5.60;99.90;;;;;;5034394;28;20218;-85
2023/03/19 06:01:31;;;;;;;7.07;6.38;;;5.50;99.90;;;;;;5034796;28;20237;-85
2023/03/19 06:04:00;;;;;;;8.35;6.30;;;5.50;99.90;;;;;;5034900;28;20291;-85
2023/03/19 06:06:30;;;;;;;6.20;5.68;;;5.50;99.90;;;;;;5034732;28;20217;-85
2023/03/19 06:08:58;;;;;;;8.30;6.75;;;5.50;99.90;;;;;;5034048;28;20288;-85
2023/03/19 06:11:28;;;;;;;10.18;6.97;;;5.60;99.90;;;;;;5034271;28;20284;-85
2023/03/19 06:13:56;;;;;;;7.85;6.47;;;5.60;99.90;;;;;;5034605;28;20308;-85
2023/03/19 06:16:24;;;;;;;6.57;5.97;;;5.60;99.90;;;;;;5034364;28;20336;-86
2023/03/19 06:18:53;;;;;;;11.90;7.25;;;5.70;99.90;;;;;;5034383;28;20217;-80
2023/03/19 06:21:21;;;;;;;11.00;6.65;;;5.70;99.90;;;;;;5034257;28;20328;-80
2023/03/19 06:23:50;;;;;;;5.78;5.22;;;5.70;99.90;;;;;;5034108;28;20312;-80
2023/03/19 06:26:18;;;;;;;7.22;6.45;;;5.70;99.90;;;;;;5034313;28;20282;-80
2023/03/19 06:28:48;;;;;;;8.10;7.07;;;5.70;99.90;;;;;;5033635;28;20363;-80
2023/03/19 06:31:16;;;;;;;8.45;7.55;;;5.80;99.90;;;;;;5034012;28;20247;-80
2023/03/19 06:33:45;;;;;;;7.10;6.40;;;5.80;99.90;;;;;;5034010;28;20233;-80
2023/03/19 06:36:13;;;;;;;7.20;6.50;;;5.80;99.90;;;;;;5033714;28;20232;-85
2023/03/19 06:38:42;;;;;;;6.53;5.93;;;5.90;99.90;;;;;;5032691;28;20260;-85
2023/03/19 06:41:10;;;;;;;6.35;5.72;;;5.90;99.90;;;;;;5033714;28;20328;-85
2023/03/19 06:43:40;;;;;;;6.50;5.80;;;6.00;99.90;;;;;;5033665;28;20285;-85
2023/03/19 06:46:10;;;;;;;9.70;6.43;;;6.00;99.90;;;;;;5033411;28;20273;-85
2023/03/19 06:48:39;;;;;;;6.95;6.35;;;6.00;99.90;;;;;;5033117;28;20224;-85
2023/03/19 06:51:08;;;;;;;10.63;7.95;;;6.00;99.90;;;;;;5033469;28;20247;-85
2023/03/19 06:53:36;;;;;;;7.78;6.90;;;6.10;99.90;;;;;;5033864;28;20281;-86
2023/03/19 06:56:05;;;;;;;7.30;6.68;;;6.10;99.90;;;;;;5033645;28;20243;-85
2023/03/19 06:58:34;;;;;;;9.43;7.75;;;6.10;99.90;;;;;;5032833;28;20285;-85
2023/03/19 07:01:03;;;;;;;7.25;6.53;;;6.10;99.90;;;;;;5033632;28;20237;-85
2023/03/19 07:03:33;;;;;;;7.00;6.30;;;6.20;99.90;;;;;;5032995;28;20221;-85
2023/03/19 07:06:01;;;;;;;9.38;7.45;;;6.20;99.90;;;;;;5033211;28;20227;-85
2023/03/19 07:08:30;;;;;;;8.88;7.50;;;6.20;99.90;;;;;;5032696;28;20275;-84
2023/03/19 07:11:04;;;;;;;7.82;7.13;;;6.30;99.90;;;;;;5033067;28;20253;-85
2023/03/19 07:13:32;;;;;;;7.95;7.10;;;6.30;99.90;;;;;;5033113;28;20221;-85
2023/03/19 07:16:01;;;;;;;7.80;7.10;;;6.40;99.90;;;;;;5032986;28;20290;-85
2023/03/19 07:18:29;;;;;;;7.57;6.88;;;6.40;99.90;;;;;;5032579;28;20217;-85
2023/03/19 07:21:00;;;;;;;7.07;6.30;;;6.50;99.90;;;;;;5033399;28;20241;-85
2023/03/19 07:23:28;;;;;;;9.88;6.63;;;6.50;99.90;;;;;;5033482;28;20229;-85
2023/03/19 07:25:57;;;;;;;9.60;7.75;;;6.60;99.90;;;;;;5033164;28;20289;-85
2023/03/19 07:28:25;;;;;;;10.65;8.48;;;6.60;99.90;;;;;;5032498;28;20224;-84
2023/03/19 07:30:55;;;;;;;7.82;7.03;;;6.60;99.90;;;;;;5032947;28;20245;-85
2023/03/19 07:33:23;;;;;;;11.40;8.13;;;6.70;99.90;;;;;;5032940;28;20256;-85
2023/03/19 07:35:52;;;;;;;7.43;6.75;;;6.80;99.90;;;;;;5032641;28;20331;-84
2023/03/19 07:38:21;;;;;;;9.18;7.32;;;6.90;99.90;;;;;;5032279;28;20242;-84
2023/03/19 07:40:50;;;;;;;8.30;7.18;;;7.00;99.90;;;;;;5032821;28;20247;-85
2023/03/19 07:43:30;;;;;;;10.48;7.35;;;7.10;99.90;;;;;;5032600;28;20252;-85
2023/03/19 07:45:58;;;;;;;8.63;7.30;;;7.20;99.90;;;;;;5032676;28;20232;-85
2023/03/19 07:48:29;;;;;;;8.45;7.28;;;7.20;99.90;;;;;;5032194;28;20251;-85
2023/03/19 07:50:57;;;;;;;9.85;7.47;;;7.20;99.90;;;;;;5032495;28;20243;-84
2023/03/19 07:53:27;;;;;;;11.70;7.93;;;7.20;99.90;;;;;;5032786;28;20260;-85
2023/03/19 07:55:55;;;;;;;7.85;6.72;;;7.30;99.90;;;;;;5032538;28;20282;-85
2023/03/19 07:58:25;;;;;;;7.18;6.53;;;7.40;99.90;;;;;;5031775;28;20241;-84
2023/03/19 08:00:53;;;;;;;10.43;6.43;;;7.50;99.90;;;;;;5032994;28;20302;-85
2023/03/19 08:03:21;;;;;;;9.88;7.43;;;7.70;99.90;;;;;;5032299;28;20308;-85
2023/03/19 08:05:51;;;;;;;8.02;7.25;;;7.80;99.90;;;;;;5032714;28;20217;-85
2023/03/19 08:08:19;;;;;;;8.23;6.75;;;8.00;99.90;;;;;;5032296;28;20225;-84
2023/03/19 08:10:49;;;;;;;8.98;8.07;;;8.10;99.90;;;;;;5032435;28;20245;-84
2023/03/19 08:13:18;;;;;;;8.50;7.35;;;8.20;99.90;;;;;;5032617;28;20252;-84
2023/03/19 08:15:46;;;;;;;9.18;8.15;;;8.20;99.90;;;;;;5032765;28;20224;-84
2023/03/19 08:18:14;;;;;;;8.20;7.40;;;8.30;99.90;;;;;;5035763;28;20283;-85
2023/03/19 08:20:44;;;;;;;8.15;7.35;;;8.30;99.90;;;;;;5036324;28;20304;-84
2023/03/19 08:23:13;;;;;;;10.80;8.20;;;8.30;99.90;;;;;;5036616;28;20270;-84
2023/03/19 08:25:41;;;;;;;7.75;7.05;;;8.50;99.90;;;;;;5036697;28;20248;-84
2023/03/19 08:28:11;;;;;;;8.35;7.65;;;8.60;99.90;;;;;;5035697;28;20213;-84
2023/03/19 08:30:40;;;;;;;9.80;7.82;;;8.80;99.90;;;;;;5036388;28;20248;-84
2023/03/19 08:33:08;;;;;;;7.63;6.82;;;9.00;99.90;;;;;;5036178;28;20213;-84
2023/03/19 08:35:37;;;;;;;7.70;6.88;;;9.20;99.90;;;;;;5035863;28;20297;-85
2023/03/19 08:38:05;;;;;;;18.77;8.57;;;9.30;99.90;;;;;;5035596;28;20336;-85
2023/03/19 08:40:34;;;;;;;9.63;7.82;;;9.50;99.90;;;;;;5035357;28;20327;-85
2023/03/19 08:43:03;;;;;;;8.13;7.32;;;9.70;99.90;;;;;;5035777;28;20266;-85
2023/03/19 08:45:33;;;;;;;10.63;7.97;;;9.80;99.90;;;;;;5035950;28;20301;-85
2023/03/19 08:48:01;;;;;;;6.90;6.25;;;9.90;99.90;;;;;;5035262;28;20245;-85
2023/03/19 08:50:29;;;;;;;10.48;8.00;;;10.20;99.90;;;;;;5036028;28;20245;-84
2023/03/19 08:52:58;;;;;;;8.45;7.47;;;10.30;99.90;;;;;;5035945;28;20228;-85
2023/03/19 08:55:26;;;;;;;8.80;7.25;;;10.60;99.90;;;;;;5035407;28;20221;-84
2023/03/19 08:57:54;;;;;;;8.00;7.25;;;10.80;99.90;;;;;;5035367;28;20301;-85
2023/03/19 09:00:23;;;;;;;8.68;7.85;;;10.90;99.90;;;;;;5035833;28;20190;-85
2023/03/19 09:02:52;;;;;;;9.00;7.30;;;11.10;99.90;;;;;;5035557;28;20278;-84
2023/03/19 09:05:22;;;;;;;;;;;11.10;99.90;;;;;;5036157;28;20165;-84
2023/03/19 09:07:52;;;;;;;8.80;7.43;;;11.30;99.90;;;;;;5035069;28;20361;-85
2023/03/19 09:10:20;;;;;;;7.60;6.90;;;11.30;99.90;;;;;;5035236;28;20310;-84
2023/03/19 09:12:48;;;;;;;;;;;11.20;99.90;;;;;;5035030;28;20163;-85
2023/03/19 09:15:16;;;;;;;;;;;11.10;99.90;;;;;;5035445;28;19964;-85
2023/03/19 09:17:44;;;;;;;;;;;11.20;99.90;;;;;;5035410;28;19961;-85
2023/03/19 09:20:13;;;;;;;;;;;11.50;99.90;;;;;;5035972;28;20020;-85
2023/03/19 09:22:42;;;;;;;;;;;11.70;99.90;;;;;;5036122;28;19960;-85
2023/03/19 09:25:10;;;;;;;;;;;12.20;99.90;;;;;;5035928;28;19960;-85
2023/03/19 09:27:39;;;;;;;;;;;12.60;99.90;;;;;;5034690;28;19928;-85
2023/03/19 09:30:08;;;;;;;;;;;13.10;99.90;;;;;;5035754;28;20015;-85
2023/03/19 09:32:36;;;;;;;;;;;13.50;99.90;;;;;;5035610;28;20054;-85
2023/03/19 09:35:05;;;;;;;;;;;13.80;99.10;;;;;;5035428;28;20023;-85
2023/03/19 09:37:35;;;;;;;;;;;13.80;98.50;;;;;;5035151;28;19921;-85
2023/03/19 09:40:04;;;;;;;;;;;14.00;98.00;;;;;;5035619;28;19927;-85
2023/03/19 09:42:41;;;;;;;;;;;13.90;97.70;;;;;;5035378;28;20050;-85
2023/03/19 09:45:12;;;;;;;;;;;13.60;97.80;;;;;;5035471;28;19947;-85
2023/03/19 09:47:42;;;;;;;;;;;13.40;98.00;;;;;;5034496;28;19925;-85
2023/03/19 09:50:13;;;;;;;;;;;13.50;98.10;;;;;;5035387;28;19921;-85
2023/03/19 09:52:44;;;;;;;;;;;13.70;97.60;;;;;;5035380;28;19921;-85
2023/03/19 09:55:16;;;;;;;;;;;14.00;97.30;;;;;;5035572;28;20021;-85
2023/03/19 09:57:44;;;;;;;;;;;14.50;96.80;;;;;;5034734;28;19935;-85
2023/03/19 10:00:21;;;;;;;;;;;15.10;96.00;;;;;;5034947;28;19963;-85
2023/03/19 10:02:51;;;;;;;;;;;15.60;95.50;;;;;;5035439;28;19925;-85
2023/03/19 10:05:24;;;;;;;;;;;16.10;94.40;;;;;;5034892;28;19960;-85
2023/03/19 10:08:10;;;;;;;;;;;16.50;93.60;;;;;;5035082;28;20024;-85
2023/03/19 10:10:47;;;;;;;;;;;16.70;92.40;;;;;;5035116;28;19988;-85
2023/03/19 10:13:21;;;;;;;;;;;16.80;91.90;;;;;;5034710;28;19983;-85
2023/03/19 10:15:50;;;;;;;;;;;16.60;91.50;;;;;;5034949;28;20035;-85
2023/03/19 10:18:20;;;;;;;;;;;16.50;91.40;;;;;;5034114;28;20005;-85
2023/03/19 10:20:51;;;;;;;;;;;16.20;91.30;;;;;;5035264;28;19948;-85
2023/03/19 10:23:32;;;;;;;;;;;15.80;91.60;;;;;;5034515;28;19968;-85
2023/03/19 10:26:04;;;;;;;;;;;15.30;92.20;;;;;;5034781;28;19927;-85
2023/03/19 10:28:32;;;;;;;;;;;15.10;92.30;;;;;;5034045;28;19984;-85
2023/03/19 10:31:07;;;;;;;;;;;15.00;92.70;;;;;;5034369;28;19956;-85
2023/03/19 10:33:39;;;;;;;;;;;15.10;92.70;;;;;;5034583;28;19921;-85
2023/03/19 10:36:11;;;;;;;;;;;15.00;92.70;;;;;;5034714;28;19971;-85
2023/03/19 10:38:43;;;;;;;;;;;15.00;91.90;;;;;;5033152;28;19921;-85
2023/03/19 10:41:24;;;;;;;;;;;15.10;92.70;;;;;;5032887;28;19957;-85
2023/03/19 10:43:54;;;;;;;;;;;15.30;92.10;;;;;;5034119;28;19931;-84
2023/03/19 10:46:22;;;;;;;;;;;15.60;91.90;;;;;;5034153;28;19940;-84
2023/03/19 10:48:50;;;;;;;;;;;15.70;91.60;;;;;;5033796;28;19921;-84
2023/03/19 10:51:21;;;;;;;;;;;15.80;93.00;;;;;;5034217;28;19925;-84
2023/03/19 10:53:52;;;;;;;;;;;15.80;91.40;;;;;;5034121;28;20023;-84
2023/03/19 10:56:23;;;;;;;;;;;15.50;91.50;;;;;;5034192;28;19964;-84
2023/03/19 10:59:02;;;;;;;;;;;15.30;91.70;;;;;;5033530;28;19975;-84
2023/03/19 11:01:32;;;;;;;;;;;15.40;91.90;;;;;;5033978;28;19921;-84
2023/03/19 11:04:01;;;;;;;;;;;15.50;91.70;;;;;;5033984;28;19921;-85
2023/03/19 11:06:32;;;;;;;;;;;15.30;91.30;;;;;;5033793;28;19921;-84
2023/03/19 11:09:01;;;;;;;;;;;15.30;91.30;;;;;;5033486;28;19921;-84
2023/03/19 11:11:35;;;;;;;;;;;15.20;91.40;;;;;;5033533;28;19975;-84
2023/03/19 11:14:07;;;;;;;;;;;15.10;90.90;;;;;;5033498;28;19928;-84
2023/03/19 11:16:46;;;;;;;;;;;15.00;91.20;;;;;;5033262;28;20019;-84
2023/03/19 11:19:18;;;;;;;;;;;15.20;91.30;;;;;;5033368;28;19925;-84
2023/03/19 11:21:54;;;;;;;;;;;15.30;91.20;;;;;;5033766;28;20024;-84
2023/03/19 11:24:22;;;;;;;;;;;15.30;91.30;;;;;;5033738;28;19967;-84
2023/03/19 11:26:55;;;;;;;;;;;15.50;90.70;;;;;;5033171;28;19925;-84
2023/03/19 11:29:26;;;;;;;;;;;15.40;90.60;;;;;;5033461;28;19967;-84
2023/03/19 11:31:58;;;;;;;;;;;15.50;90.70;;;;;;5033361;28;19989;-84
2023/03/19 11:34:43;;;;;;;;;;;15.50;90.60;;;;;;5033628;28;19927;-84
2023/03/19 11:37:18;;;;;;;;;;;15.60;90.40;;;;;;5032780;28;19921;-85
2023/03/19 11:39:52;;;;;;;;;;;15.70;90.80;;;;;;5031896;28;19920;-84
2023/03/19 11:42:45;;;;;;;;;;;16.00;90.30;;;;;;5033536;28;19935;-84
2023/03/19 11:45:19;;;;;;;;;;;16.10;90.10;;;;;;5032196;28;19971;-84
2023/03/19 11:47:53;;;;;;;;;;;16.00;89.90;;;;;;5032479;28;19921;-84
2023/03/19 11:50:25;;;;;;;;;;;16.20;89.60;;;;;;5033142;28;19964;-78
2023/03/19 11:53:03;;;;;;;;;;;16.40;89.40;;;;;;5033370;28;19964;-78
2023/03/19 11:55:34;;;;;;;;;;;16.10;88.70;;;;;;5032901;28;19927;-84
2023/03/19 11:58:08;;;;;;;;;;;16.00;89.00;;;;;;5032649;28;19921;-84
2023/03/19 12:00:39;;;;;;;;;;;15.80;89.10;;;;;;5032898;28;19921;-84
2023/03/19 12:03:24;;;;;;;;;;;15.80;89.30;;;;;;5032628;28;19964;-84
2023/03/19 12:05:56;;;;;;;;;;;16.00;88.90;;;;;;5033074;28;19925;-84
2023/03/19 12:08:29;;;;;;;;;;;16.20;87.90;;;;;;5032998;28;19921;-84
2023/03/19 12:11:04;;;;;;;;;;;16.30;87.80;;;;;;5033255;28;19932;-84
2023/03/19 12:13:37;;;;;;;;;;;16.30;87.40;;;;;;5032570;28;19925;-84
2023/03/19 12:16:12;;;;;;;;;;;16.30;87.80;;;;;;5032823;28;20024;-84
2023/03/19 12:18:47;;;;;;;;;;;15.90;87.90;;;;;;5032262;28;19925;-84
2023/03/19 12:21:22;;;;;;;;;;;15.90;88.40;;;;;;5032735;28;19928;-84
2023/03/19 12:23:59;;;;;;;;;;;15.90;87.90;;;;;;5032649;28;19968;-84
2023/03/19 12:26:35;;;;;;;;;;;16.10;88.60;;;;;;5032886;28;19921;-84
2023/03/19 12:29:08;;;;;;;;;;;16.10;87.80;;;;;;5031999;28;19971;-85
2023/03/19 12:31:42;;;;;;;;;;;16.00;88.10;;;;;;5032631;28;20016;-84
2023/03/19 12:34:16;;;;;;;;;;;16.20;88.20;;;;;;5032578;28;19988;-85
2023/03/19 12:36:48;;;;;;;;;;;16.60;86.80;;;;;;5032252;28;20015;-84
2023/03/19 12:39:19;;;;;;;;;;;17.00;85.20;;;;;;5032485;28;19928;-84
2023/03/19 12:41:50;;;;;;;;;;;17.10;84.40;;;;;;5032620;28;19921;-84
2023/03/19 12:44:20;;;;;;;;;;;16.90;84.00;;;;;;5032654;28;19925;-84
2023/03/19 12:46:53;;;;;;;;;;;16.70;84.60;;;;;;5031875;28;20000;-84
2023/03/19 12:49:29;;;;;;;;;;;16.50;85.10;;;;;;5032635;28;19928;-84
2023/03/19 12:52:00;;;;;;;;;;;16.30;84.90;;;;;;5032697;28;19931;-84
2023/03/19 12:54:33;;;;;;;;;;;16.40;85.60;;;;;;5032831;28;19928;-85
2023/03/19 12:57:04;;;;;;;;;;;16.60;85.00;;;;;;5032288;28;20020;-84
2023/03/19 12:59:36;;;;;;;;;;;16.70;84.40;;;;;;5032425;28;20040;-84
2023/03/19 13:02:10;;;;;;;;;;;17.10;85.40;;;;;;5033242;28;19998;-84
2023/03/19 13:04:39;;;;;;;;;;;17.50;84.00;;;;;;5035972;28;19928;-84
2023/03/19 13:07:11;;;;;;;;;;;17.50;82.90;;;;;;5035578;28;20003;-84
2023/03/19 13:09:43;;;;;;;;;;;17.40;82.80;;;;;;5036227;28;20015;-84
2023/03/19 13:12:13;;;;;;;;;;;17.40;82.90;;;;;;5036067;28;19925;-84
2023/03/19 13:14:46;;;;;;;;;;;17.60;82.20;;;;;;5035351;28;19955;-84
2023/03/19 13:17:21;;;;;;;;;;;17.80;82.50;;;;;;5035307;28;19988;-84
2023/03/19 13:19:52;;;;;;;;;;;18.00;81.60;;;;;;5035690;28;19925;-84
2023/03/19 13:22:22;;;;;;;;;;;17.70;81.30;;;;;;5035884;28;19975;-84
2023/03/19 13:24:51;;;;;;;;;;;17.40;81.50;;;;;;5035603;28;19925;-84
2023/03/19 13:27:21;;;;;;;;;;;17.30;81.50;;;;;;5035593;28;19979;-85
2023/03/19 13:29:55;;;;;;;;;;;17.20;82.00;;;;;;5035711;28;19967;-85
2023/03/19 13:32:27;;;;;;;;;;;16.90;81.50;;;;;;5035704;28;19921;-84
2023/03/19 13:35:08;;;;;;;;;;;16.60;82.40;;;;;;5035471;28;19985;-84